Suntar, Russia
Current Conditions -  °F | °C
As of 12:30 PM on Tuesday 27 Jan 2015 (Local Time) from UEEE Reporting Station
Haze Haze  
Wind Chill: -27°   Ceiling: 20000
Heat Index: -27°   Visibility: 3mi
Dew Point: -33°   Wind: 0mph
Humidity: 75%   Direction: NA
Pressure: 30.06"   Gusts: NA
Location:  62.16°N, 117.63°E
Report Text: UEEE 270330Z 00000MPS 5000 BR OVC200 M33/M36 Q1018 NOSIG RMKQFE755 23490245
Loading
Personal Weather Stations






























Interactive Weather Map New forecast layout! Learn more

10-Day Weather Forecast

Advertisements
Track Severe Weather on mobile